Time;durP1;ratioP1;P1;durP2;ratioP2;P2;SDS_P1;SDS_P2;PMS_P1;PMS_P2;Temp;Humidity;BMP_temperature;BMP_pressure;BME280_temperature;BME280_humidity;BME280_pressure;Samples;Min_cycle;Max_cycle;Signal;HPM_P1;HPM_P2
2021/10/14 00:00:49;;;;;;;12.07;9.68;;;12.00;99.90;;;;;;5146041;27;20220;-83
2021/10/14 00:03:16;;;;;;;10.32;8.63;;;12.00;99.90;;;;;;5140288;27;20188;-83
2021/10/14 00:05:43;;;;;;;13.13;9.55;;;12.00;99.90;;;;;;5133786;27;20193;-83
2021/10/14 00:08:11;;;;;;;16.85;11.90;;;12.00;99.90;;;;;;5151264;27;20188;-83
2021/10/14 00:10:39;;;;;;;10.18;9.18;;;12.00;99.90;;;;;;5133160;28;20184;-84
2021/10/14 00:13:06;;;;;;;12.05;9.30;;;12.00;99.90;;;;;;5139942;27;20202;-84
2021/10/14 00:15:33;;;;;;;14.65;10.32;;;12.10;99.90;;;;;;5136764;28;20207;-84
2021/10/14 00:18:01;;;;;;;15.23;9.75;;;12.10;99.90;;;;;;5140625;27;20188;-84
2021/10/14 00:20:28;;;;;;;13.77;9.32;;;12.10;99.90;;;;;;5153131;27;20208;-84
2021/10/14 00:22:56;;;;;;;18.10;10.90;;;12.10;99.90;;;;;;5137148;28;20225;-84
2021/10/14 00:25:33;;;;;;;11.27;9.15;;;12.10;99.90;;;;;;5133795;27;20200;-84
2021/10/14 00:28:00;;;;;;;11.55;10.35;;;12.20;99.90;;;;;;5134555;28;20183;-84
2021/10/14 00:30:28;;;;;;;12.75;10.02;;;12.20;99.90;;;;;;5138758;27;20271;-84
2021/10/14 00:33:04;;;;;;;19.13;12.43;;;12.20;99.90;;;;;;5138249;28;20224;-84
2021/10/14 00:35:31;;;;;;;13.65;9.77;;;12.20;99.90;;;;;;5135538;28;20206;-84
2021/10/14 00:38:00;;;;;;;13.40;10.15;;;12.30;99.90;;;;;;5121627;28;20639;-84
2021/10/14 00:40:30;;;;;;;10.55;9.32;;;12.30;99.90;;;;;;5113749;28;20228;-84
2021/10/14 00:42:57;;;;;;;12.77;9.43;;;12.30;99.90;;;;;;5119906;28;20218;-84
2021/10/14 00:45:29;;;;;;;13.70;11.32;;;12.30;99.90;;;;;;5104713;27;20233;-84
2021/10/14 00:48:07;;;;;;;13.15;9.93;;;12.40;99.90;;;;;;5125070;27;20209;-84
2021/10/14 00:50:34;;;;;;;15.00;9.90;;;12.40;99.90;;;;;;5129862;27;20257;-84
2021/10/14 00:53:02;;;;;;;14.90;11.57;;;12.40;99.90;;;;;;5117274;28;20209;-84
2021/10/14 00:55:31;;;;;;;23.15;10.95;;;12.40;99.90;;;;;;5136310;27;20204;-84
2021/10/14 00:57:58;;;;;;;13.75;10.45;;;12.40;99.90;;;;;;5134683;27;20210;-84
2021/10/14 01:00:25;;;;;;;16.80;11.15;;;12.40;99.90;;;;;;5152277;27;20224;-83
2021/10/14 01:02:53;;;;;;;16.30;11.80;;;12.40;99.90;;;;;;5139770;27;20932;-84
2021/10/14 01:05:20;;;;;;;17.05;11.07;;;12.30;99.90;;;;;;5142387;27;20218;-84
2021/10/14 01:07:47;;;;;;;17.55;10.02;;;12.40;99.90;;;;;;5123135;27;20207;-84
2021/10/14 01:10:16;;;;;;;11.93;10.60;;;12.40;99.90;;;;;;5116340;27;20593;-84
2021/10/14 01:12:51;;;;;;;13.25;9.70;;;12.40;99.90;;;;;;5125681;27;20224;-84
2021/10/14 01:15:24;;;;;;;17.88;11.65;;;12.40;99.90;;;;;;5119825;27;20206;-84
2021/10/14 01:18:01;;;;;;;11.45;10.07;;;12.40;99.90;;;;;;5109589;27;20209;-85
2021/10/14 01:20:29;;;;;;;13.90;10.02;;;12.50;99.90;;;;;;5128150;27;20246;-85
2021/10/14 01:22:57;;;;;;;12.27;10.95;;;12.40;99.90;;;;;;5119645;27;20224;-84
2021/10/14 01:25:25;;;;;;;13.45;11.13;;;12.40;99.90;;;;;;5125359;27;20624;-84
2021/10/14 01:27:52;;;;;;;15.40;11.10;;;12.50;99.90;;;;;;5136548;27;20207;-84
2021/10/14 01:30:19;;;;;;;17.63;12.38;;;12.50;99.90;;;;;;5134961;27;20226;-84
2021/10/14 01:32:49;;;;;;;16.48;11.88;;;12.50;99.90;;;;;;5131525;27;20203;-84
2021/10/14 01:35:16;;;;;;;15.75;11.68;;;12.60;99.90;;;;;;5131573;27;20221;-84
2021/10/14 01:37:46;;;;;;;16.25;11.10;;;12.60;99.90;;;;;;5124070;27;20200;-84
2021/10/14 01:40:13;;;;;;;18.00;12.35;;;12.50;99.90;;;;;;5129255;28;20209;-84
2021/10/14 01:42:40;;;;;;;14.07;11.55;;;12.50;99.90;;;;;;5135510;28;20199;-84
2021/10/14 01:45:58;;;;;;;16.20;13.10;;;12.50;99.90;;;;;;5134879;28;20183;-84
2021/10/14 01:48:54;;;;;;;19.67;13.25;;;12.50;99.90;;;;;;5138348;28;20246;-84
2021/10/14 01:51:22;;;;;;;17.17;13.40;;;12.50;99.90;;;;;;5123711;28;20209;-84
2021/10/14 01:53:54;;;;;;;19.33;14.10;;;12.50;99.90;;;;;;5141816;27;20282;-83
2021/10/14 01:56:21;;;;;;;17.83;13.93;;;12.50;99.90;;;;;;5130937;28;20192;-83
2021/10/14 01:59:08;;;;;;;18.08;14.02;;;12.50;99.90;;;;;;5119173;28;20601;-84
2021/10/14 02:01:42;;;;;;;23.35;14.52;;;12.50;99.90;;;;;;5132410;28;20559;-84
2021/10/14 02:04:11;;;;;;;18.00;14.15;;;12.50;99.90;;;;;;5120404;28;20722;-85
2021/10/14 02:06:46;;;;;;;24.63;14.60;;;12.50;99.90;;;;;;5120185;28;20210;-84
2021/10/14 02:09:15;;;;;;;21.30;16.38;;;12.50;99.90;;;;;;5123678;28;20594;-84
2021/10/14 02:12:06;;;;;;;21.35;14.77;;;12.50;99.90;;;;;;5122055;28;20195;-84
2021/10/14 02:17:15;;;;;;;20.42;14.98;;;12.50;99.90;;;;;;5114291;28;20204;-84
2021/10/14 02:20:01;;;;;;;24.92;15.80;;;12.50;99.90;;;;;;5111030;28;20228;-85
2021/10/14 02:22:30;;;;;;;24.73;18.98;;;12.50;99.90;;;;;;5114924;28;20217;-84
2021/10/14 02:24:58;;;;;;;28.13;17.55;;;12.50;99.90;;;;;;5118938;28;20226;-84
2021/10/14 02:27:31;;;;;;;21.42;15.50;;;12.50;99.90;;;;;;5119129;28;20208;-84
2021/10/14 02:29:58;;;;;;;27.70;17.40;;;12.50;99.90;;;;;;5118686;28;20233;-84
2021/10/14 02:32:25;;;;;;;23.75;16.45;;;12.60;99.90;;;;;;5128997;28;20203;-85
2021/10/14 02:34:58;;;;;;;22.90;16.73;;;12.50;99.90;;;;;;5122210;28;20204;-84
2021/10/14 02:37:26;;;;;;;26.13;18.65;;;12.50;99.90;;;;;;5126894;28;20200;-84
2021/10/14 02:39:53;;;;;;;31.90;17.88;;;12.50;99.90;;;;;;5116819;28;20773;-84
2021/10/14 02:42:21;;;;;;;31.50;19.00;;;12.50;99.90;;;;;;5120360;28;20244;-85
2021/10/14 02:44:48;;;;;;;27.75;19.90;;;12.50;99.90;;;;;;5111603;28;20201;-84
2021/10/14 02:51:32;;;;;;;32.20;17.85;;;12.50;99.90;;;;;;5121749;28;20202;-85
2021/10/14 02:53:59;;;;;;;31.23;17.60;;;12.50;99.90;;;;;;5132298;28;20265;-84
2021/10/14 03:00:18;;;;;;;33.95;17.98;;;12.50;99.90;;;;;;5102422;28;20224;-84
2021/10/14 03:03:21;;;;;;;32.53;19.23;;;12.50;99.90;;;;;;5124435;28;20219;-85
2021/10/14 03:05:48;;;;;;;31.75;21.05;;;12.60;99.90;;;;;;5123269;27;20212;-84
2021/10/14 03:08:20;;;;;;;31.42;20.50;;;12.50;99.90;;;;;;5123525;27;20193;-84
2021/10/14 03:11:18;;;;;;;49.20;24.33;;;12.50;99.90;;;;;;5122939;27;20203;-84
2021/10/14 03:16:30;;;;;;;38.33;21.45;;;12.50;99.90;;;;;;5110590;28;20720;-84
2021/10/14 03:18:57;;;;;;;37.22;21.40;;;12.50;99.90;;;;;;5121489;27;20227;-84
2021/10/14 03:21:33;;;;;;;35.92;21.77;;;12.50;99.90;;;;;;5128232;27;20215;-84
2021/10/14 03:24:21;;;;;;;33.25;21.40;;;12.50;99.90;;;;;;5139658;27;20208;-83
2021/10/14 03:26:48;;;;;;;34.50;22.50;;;12.50;99.90;;;;;;5139728;28;20196;-84
2021/10/14 03:29:17;;;;;;;31.50;19.75;;;12.50;99.90;;;;;;5145177;27;20277;-84
2021/10/14 03:31:48;;;;;;;30.38;21.58;;;12.50;99.90;;;;;;5119567;28;20257;-83
2021/10/14 03:34:15;;;;;;;33.15;22.60;;;12.60;99.90;;;;;;5110877;28;20219;-84
2021/10/14 03:37:11;;;;;;;31.42;21.35;;;12.60;99.90;;;;;;5127316;27;20661;-84
2021/10/14 03:40:04;;;;;;;33.60;22.17;;;12.60;99.90;;;;;;5133532;27;20224;-85
2021/10/14 03:46:07;;;;;;;29.58;19.30;;;12.60;99.90;;;;;;5125191;27;20226;-85
2021/10/14 03:51:20;;;;;;;31.48;18.80;;;12.60;99.90;;;;;;5050533;27;20212;-84
2021/10/14 03:54:33;;;;;;;32.90;21.48;;;12.60;99.90;;;;;;5123411;27;20199;-84
2021/10/14 04:00:41;;;;;;;32.42;19.73;;;12.70;99.90;;;;;;5036148;28;20225;-84
2021/10/14 04:06:16;;;;;;;25.95;18.63;;;12.70;99.90;;;;;;5120306;27;20245;-84
2021/10/14 04:08:43;;;;;;;27.27;18.55;;;12.70;99.90;;;;;;5126034;27;20270;-84
2021/10/14 04:11:10;;;;;;;27.75;17.83;;;12.70;99.90;;;;;;5117290;27;20273;-84
2021/10/14 04:13:38;;;;;;;25.70;18.65;;;12.80;99.90;;;;;;5119472;27;20211;-85
2021/10/14 04:16:05;;;;;;;23.77;16.92;;;12.80;99.90;;;;;;5119011;27;20228;-84
2021/10/14 04:18:33;;;;;;;26.20;16.23;;;12.90;99.90;;;;;;5125504;27;20224;-85
2021/10/14 04:21:02;;;;;;;26.42;17.77;;;12.90;99.90;;;;;;5126121;27;20219;-85
2021/10/14 04:23:31;;;;;;;22.40;15.65;;;13.00;99.90;;;;;;5127253;27;20237;-85
2021/10/14 04:26:05;;;;;;;22.23;14.50;;;13.00;99.90;;;;;;5126317;27;20205;-84
2021/10/14 04:28:40;;;;;;;17.00;13.10;;;13.00;99.90;;;;;;5136484;27;20279;-84
2021/10/14 04:31:08;;;;;;;15.38;12.00;;;13.00;99.90;;;;;;5125076;27;20200;-84
2021/10/14 04:33:35;;;;;;;21.58;14.70;;;13.10;99.90;;;;;;5125575;27;20197;-84
2021/10/14 04:39:38;;;;;;;14.77;11.90;;;13.10;99.90;;;;;;5015248;27;20231;-84
2021/10/14 04:42:24;;;;;;;17.05;11.98;;;13.10;99.90;;;;;;5134006;27;20216;-83
2021/10/14 04:44:51;;;;;;;18.70;12.25;;;13.10;99.90;;;;;;5124724;27;20680;-84
2021/10/14 04:47:20;;;;;;;14.65;11.27;;;13.10;99.90;;;;;;5124445;27;20619;-84
2021/10/14 04:49:48;;;;;;;21.10;11.77;;;13.20;99.90;;;;;;5114872;28;20233;-84
2021/10/14 04:52:15;;;;;;;14.07;11.25;;;13.10;99.90;;;;;;5106265;27;20254;-84
2021/10/14 04:55:02;;;;;;;21.45;12.77;;;13.10;99.90;;;;;;5121397;27;20241;-85
2021/10/14 04:57:30;;;;;;;15.90;11.80;;;13.10;99.90;;;;;;5123551;27;20633;-84
2021/10/14 04:59:57;;;;;;;21.15;11.10;;;13.10;99.90;;;;;;5117116;27;20717;-84
2021/10/14 05:02:24;;;;;;;17.65;10.18;;;13.10;99.90;;;;;;5121753;27;20308;-84
2021/10/14 05:04:51;;;;;;;14.60;10.20;;;13.20;99.90;;;;;;5115580;27;20212;-84
2021/10/14 05:07:18;;;;;;;15.48;10.93;;;13.20;99.90;;;;;;5124592;27;20212;-84
2021/10/14 05:09:46;;;;;;;12.70;10.18;;;13.20;99.90;;;;;;5120691;27;20252;-84
2021/10/14 05:12:15;;;;;;;14.00;10.57;;;13.20;99.90;;;;;;5121555;27;20232;-84
2021/10/14 05:14:42;;;;;;;14.63;10.48;;;13.30;99.90;;;;;;5125879;27;20208;-85
2021/10/14 05:17:09;;;;;;;16.30;10.38;;;13.30;99.90;;;;;;5120105;28;20235;-84
2021/10/14 05:19:37;;;;;;;15.00;9.95;;;13.30;99.90;;;;;;5120458;27;20289;-84
2021/10/14 05:22:04;;;;;;;20.20;10.95;;;13.30;99.90;;;;;;5125996;27;20243;-84
2021/10/14 05:24:31;;;;;;;13.15;9.32;;;13.30;99.90;;;;;;5124656;27;20219;-84
2021/10/14 05:26:58;;;;;;;24.70;10.43;;;13.30;99.90;;;;;;5128789;27;20197;-84
2021/10/14 05:29:27;;;;;;;17.95;9.68;;;13.30;99.90;;;;;;5124748;27;20227;-84
2021/10/14 05:31:54;;;;;;;15.10;9.60;;;13.30;99.90;;;;;;5121861;27;20209;-85
2021/10/14 05:34:21;;;;;;;16.25;11.00;;;13.30;99.90;;;;;;5132494;27;20216;-84
2021/10/14 05:36:53;;;;;;;17.45;10.75;;;13.20;99.90;;;;;;5128119;27;20582;-84
2021/10/14 05:39:20;;;;;;;13.48;11.43;;;13.20;99.90;;;;;;5118743;27;20308;-84
2021/10/14 05:41:47;;;;;;;13.98;10.05;;;13.20;99.90;;;;;;5120106;27;20215;-84
2021/10/14 05:44:15;;;;;;;18.67;11.50;;;13.20;99.90;;;;;;5121449;27;20224;-84
2021/10/14 05:46:43;;;;;;;15.60;11.48;;;13.20;99.90;;;;;;5126178;27;20197;-84
2021/10/14 05:49:10;;;;;;;17.73;11.30;;;13.20;99.90;;;;;;5127343;27;20220;-84
2021/10/14 05:51:38;;;;;;;17.92;10.90;;;13.20;99.90;;;;;;5107510;27;20579;-84
2021/10/14 05:54:05;;;;;;;15.40;12.32;;;13.20;99.90;;;;;;5133854;27;20567;-84
2021/10/14 05:56:32;;;;;;;16.98;11.40;;;13.20;99.90;;;;;;5117272;27;20602;-83
2021/10/14 05:59:00;;;;;;;17.13;12.68;;;13.20;99.90;;;;;;5131419;27;20224;-84
2021/10/14 06:01:27;;;;;;;15.18;11.05;;;13.10;99.90;;;;;;5125526;27;20235;-84
2021/10/14 06:03:55;;;;;;;18.48;11.25;;;13.10;99.90;;;;;;5112613;28;20280;-84
2021/10/14 06:06:24;;;;;;;16.33;10.55;;;13.10;99.90;;;;;;5121101;28;20277;-84
2021/10/14 06:08:51;;;;;;;14.55;10.65;;;13.10;99.90;;;;;;5132259;28;20224;-84
2021/10/14 06:11:18;;;;;;;14.25;10.50;;;13.10;99.90;;;;;;5128143;28;20212;-84
2021/10/14 06:13:47;;;;;;;19.20;12.63;;;13.10;99.90;;;;;;5139231;28;20203;-84
2021/10/14 06:16:14;;;;;;;14.05;10.38;;;13.10;99.90;;;;;;5137255;28;20211;-84
2021/10/14 06:18:41;;;;;;;16.60;11.52;;;13.20;99.90;;;;;;5144691;28;20237;-84
2021/10/14 06:21:10;;;;;;;17.17;11.73;;;13.10;99.90;;;;;;5138019;28;20211;-84
2021/10/14 06:24:19;;;;;;;15.52;10.90;;;13.10;99.90;;;;;;5137604;28;20224;-84
2021/10/14 06:30:29;;;;;;;16.08;12.32;;;13.10;99.90;;;;;;5137809;28;20270;-83
2021/10/14 06:33:02;;;;;;;17.20;9.65;;;13.10;99.90;;;;;;5125054;28;20225;-84
2021/10/14 06:35:46;;;;;;;18.35;12.27;;;13.20;99.90;;;;;;5125292;28;20216;-82
2021/10/14 06:38:41;;;;;;;14.98;11.60;;;13.20;99.90;;;;;;5123839;28;20220;-83
2021/10/14 06:41:45;;;;;;;17.50;11.02;;;13.20;99.90;;;;;;5134803;27;20218;-83
2021/10/14 06:50:46;;;;;;;16.77;12.00;;;13.30;99.90;;;;;;5122568;27;20276;-84
2021/10/14 06:53:13;;;;;;;15.98;11.43;;;13.30;99.90;;;;;;5132088;28;20208;-87
2021/10/14 06:55:42;;;;;;;17.80;11.80;;;13.30;99.90;;;;;;5124227;28;20204;-83
2021/10/14 06:58:09;;;;;;;19.00;12.25;;;13.30;99.90;;;;;;5121267;27;20206;-83
2021/10/14 07:00:37;;;;;;;19.83;13.63;;;13.30;99.90;;;;;;5119910;28;20256;-83
2021/10/14 07:03:04;;;;;;;19.33;14.32;;;13.30;99.90;;;;;;5120992;27;20231;-85
2021/10/14 07:05:31;;;;;;;16.60;12.68;;;13.30;99.90;;;;;;5125696;27;20260;-83
2021/10/14 07:08:01;;;;;;;18.80;13.07;;;13.20;99.90;;;;;;5130905;27;20209;-85
2021/10/14 07:10:31;;;;;;;19.73;11.40;;;13.20;99.90;;;;;;5121225;28;20231;-84
2021/10/14 07:13:04;;;;;;;18.52;12.95;;;13.30;99.90;;;;;;5126495;27;20197;-84
2021/10/14 07:15:32;;;;;;;21.23;14.88;;;13.30;99.90;;;;;;5120641;28;20273;-83
2021/10/14 07:18:01;;;;;;;16.33;12.90;;;13.30;99.90;;;;;;5121862;27;20208;-85
2021/10/14 07:20:28;;;;;;;23.50;14.00;;;13.30;99.90;;;;;;5129082;27;20233;-84
2021/10/14 07:22:56;;;;;;;21.88;14.85;;;13.40;99.90;;;;;;5129675;27;20288;-84
2021/10/14 07:25:23;;;;;;;17.90;13.20;;;13.40;99.90;;;;;;5136483;27;20189;-83
2021/10/14 07:27:50;;;;;;;18.10;14.30;;;13.40;99.90;;;;;;5132094;27;20204;-84
2021/10/14 07:30:18;;;;;;;22.98;16.92;;;13.50;99.90;;;;;;5136181;27;20620;-84
2021/10/14 07:32:45;;;;;;;21.08;13.68;;;13.40;99.90;;;;;;5120719;28;20209;-84
2021/10/14 07:35:13;;;;;;;12.32;10.40;;;13.50;99.90;;;;;;5118784;27;20204;-83
2021/10/14 07:37:40;;;;;;;16.75;13.38;;;13.50;99.90;;;;;;5125526;28;20694;-84
2021/10/14 07:40:11;;;;;;;14.40;11.80;;;13.50;99.90;;;;;;5132899;27;20229;-84
2021/10/14 07:42:38;;;;;;;19.20;14.25;;;13.60;99.90;;;;;;5129025;27;20212;-85
2021/10/14 07:45:06;;;;;;;17.27;13.13;;;13.60;99.90;;;;;;5119658;27;20696;-85
2021/10/14 07:47:35;;;;;;;16.10;12.30;;;13.60;99.90;;;;;;5137848;27;20193;-84
2021/10/14 07:50:02;;;;;;;16.98;12.23;;;13.60;99.90;;;;;;5131734;27;20284;-85
2021/10/14 07:52:29;;;;;;;14.23;12.13;;;13.70;99.90;;;;;;5130706;27;20240;-84
2021/10/14 07:54:56;;;;;;;17.15;13.40;;;13.80;99.90;;;;;;5129244;27;20219;-84
2021/10/14 07:57:24;;;;;;;13.65;11.40;;;13.80;99.90;;;;;;5122476;27;20204;-84
2021/10/14 07:59:51;;;;;;;20.63;13.15;;;13.80;99.90;;;;;;5119299;27;20224;-84
2021/10/14 08:02:18;;;;;;;13.10;11.70;;;13.80;99.90;;;;;;5130399;27;20494;-84
2021/10/14 08:04:48;;;;;;;16.10;12.73;;;13.80;99.90;;;;;;5119447;28;20225;-84
2021/10/14 08:07:15;;;;;;;14.80;11.48;;;13.90;99.90;;;;;;5124986;27;20217;-84
2021/10/14 08:09:42;;;;;;;19.77;12.93;;;13.90;99.90;;;;;;5123606;27;20233;-84
2021/10/14 08:12:09;;;;;;;16.20;11.70;;;14.00;99.90;;;;;;5111419;27;20265;-83
2021/10/14 08:14:36;;;;;;;15.95;14.10;;;14.00;99.90;;;;;;5107622;28;20210;-84
2021/10/14 08:17:04;;;;;;;15.82;13.43;;;14.10;99.90;;;;;;5124992;27;20721;-83
2021/10/14 08:19:31;;;;;;;17.75;14.02;;;14.00;99.90;;;;;;5128688;27;20205;-84
2021/10/14 08:21:59;;;;;;;20.40;16.23;;;14.00;99.90;;;;;;5124799;27;20181;-84
2021/10/14 08:24:27;;;;;;;18.45;13.75;;;14.00;99.90;;;;;;5125955;27;20217;-84
2021/10/14 08:26:54;;;;;;;18.42;14.40;;;14.00;99.90;;;;;;5119980;28;20229;-83
2021/10/14 08:29:22;;;;;;;19.48;15.38;;;14.00;99.90;;;;;;5124629;27;20290;-84
2021/10/14 08:31:49;;;;;;;18.88;15.48;;;14.00;99.90;;;;;;5120526;27;20298;-83
2021/10/14 08:34:17;;;;;;;17.92;15.25;;;14.10;99.90;;;;;;5125569;27;20208;-82
2021/10/14 08:36:44;;;;;;;19.58;15.20;;;14.10;99.90;;;;;;5122514;28;20187;-83
2021/10/14 08:39:13;;;;;;;18.95;15.75;;;14.20;99.90;;;;;;5137127;28;20202;-83
2021/10/14 08:41:48;;;;;;;19.58;15.32;;;14.10;99.90;;;;;;5143964;27;20192;-83
2021/10/14 08:44:26;;;;;;;20.52;15.77;;;14.20;99.90;;;;;;5130843;28;20248;-85
2021/10/14 08:47:02;;;;;;;19.63;16.20;;;14.30;99.90;;;;;;5120273;27;20292;-83
2021/10/14 08:49:30;;;;;;;18.88;15.02;;;14.20;99.90;;;;;;5113425;28;20213;-83
2021/10/14 08:51:57;;;;;;;18.60;14.95;;;14.20;99.90;;;;;;5138878;27;20208;-84
2021/10/14 08:54:28;;;;;;;22.08;16.67;;;14.30;99.90;;;;;;5127696;27;20193;-84
2021/10/14 08:56:56;;;;;;;21.63;16.73;;;14.30;99.90;;;;;;5137738;27;20216;-84
2021/10/14 08:59:24;;;;;;;26.65;17.50;;;14.30;99.90;;;;;;5131604;27;20213;-84
2021/10/14 09:02:14;;;;;;;27.80;18.50;;;14.20;99.90;;;;;;5115463;28;20199;-84
2021/10/14 09:04:41;;;;;;;24.55;18.85;;;14.20;99.90;;;;;;5122942;28;20308;-84
2021/10/14 09:07:09;;;;;;;31.65;21.10;;;14.00;99.90;;;;;;5125581;28;20197;-84
2021/10/14 09:09:39;;;;;;;25.65;16.77;;;14.00;99.90;;;;;;5127904;28;20285;-84
2021/10/14 09:12:07;;;;;;;24.63;19.38;;;13.80;99.90;;;;;;5124633;28;20284;-84
2021/10/14 09:14:34;;;;;;;23.33;19.08;;;13.80;99.90;;;;;;5122572;28;20201;-84
2021/10/14 09:17:01;;;;;;;19.60;15.45;;;13.90;99.90;;;;;;5140847;27;20260;-83
2021/10/14 09:19:30;;;;;;;20.98;14.32;;;13.90;99.90;;;;;;5134585;28;20221;-84
2021/10/14 09:22:00;;;;;;;21.95;14.88;;;14.00;99.90;;;;;;5127466;28;20231;-84
2021/10/14 09:24:31;;;;;;;17.13;12.68;;;14.10;99.90;;;;;;5132921;27;20223;-84
2021/10/14 09:27:03;;;;;;;15.40;12.55;;;14.30;99.90;;;;;;5140426;27;20213;-84
2021/10/14 09:29:31;;;;;;;16.38;13.05;;;14.40;99.90;;;;;;5127660;28;20227;-83
2021/10/14 09:32:00;;;;;;;17.92;14.93;;;14.50;99.90;;;;;;5131057;27;20206;-83
2021/10/14 09:34:31;;;;;;;22.75;14.90;;;14.60;99.90;;;;;;5130290;27;20273;-84
2021/10/14 09:36:59;;;;;;;17.02;13.85;;;14.90;99.90;;;;;;5135624;27;20197;-84
2021/10/14 09:39:27;;;;;;;21.85;14.80;;;15.00;99.90;;;;;;5134154;27;20246;-83
2021/10/14 09:41:57;;;;;;;25.17;15.77;;;15.10;99.90;;;;;;5132422;27;20209;-84
2021/10/14 09:44:26;;;;;;;23.30;17.63;;;15.00;99.90;;;;;;5144435;27;20197;-84
2021/10/14 09:46:55;;;;;;;19.73;14.85;;;15.00;99.90;;;;;;5126562;28;20198;-84
2021/10/14 09:49:26;;;;;;;20.85;15.15;;;14.90;99.90;;;;;;5133009;27;20308;-83
2021/10/14 09:51:53;;;;;;;20.13;15.93;;;15.00;99.90;;;;;;5133535;27;20197;-84
2021/10/14 09:54:21;;;;;;;24.35;15.60;;;14.90;99.90;;;;;;5138120;27;20194;-84
2021/10/14 09:56:48;;;;;;;16.55;14.27;;;14.90;99.90;;;;;;5134593;27;20194;-83
2021/10/14 09:59:15;;;;;;;19.63;13.95;;;15.00;99.90;;;;;;5147412;27;20223;-84
2021/10/14 10:02:13;;;;;;;19.75;14.27;;;15.10;99.90;;;;;;5137044;27;20206;-84
2021/10/14 10:04:43;;;;;;;18.33;14.60;;;15.10;99.90;;;;;;5126054;27;20310;-84
2021/10/14 10:07:16;;;;;;;18.75;12.75;;;15.30;99.90;;;;;;5126873;28;20194;-84
2021/10/14 10:09:46;;;;;;;17.42;14.45;;;15.40;99.90;;;;;;5128564;28;20254;-83
2021/10/14 10:12:14;;;;;;;16.70;13.32;;;15.40;99.90;;;;;;5133969;27;20240;-84
2021/10/14 10:14:41;;;;;;;22.25;14.25;;;15.40;99.90;;;;;;5123752;28;20209;-83
2021/10/14 10:17:22;;;;;;;16.60;12.65;;;15.50;99.90;;;;;;5130858;27;20278;-84
2021/10/14 10:19:52;;;;;;;18.08;12.27;;;15.50;99.90;;;;;;5121109;27;20308;-84
2021/10/14 10:22:52;;;;;;;14.70;11.48;;;15.60;99.90;;;;;;5128448;27;20586;-84
2021/10/14 10:25:44;;;;;;;14.98;12.90;;;15.70;99.90;;;;;;5027092;28;20209;-84
2021/10/14 10:28:38;;;;;;;14.10;11.05;;;15.80;99.90;;;;;;5013433;28;20198;-84
2021/10/14 10:31:10;;;;;;;13.95;11.88;;;15.80;99.90;;;;;;5032161;28;20247;-84
2021/10/14 10:33:57;;;;;;;21.17;11.90;;;16.00;99.90;;;;;;5031955;28;20279;-84
2021/10/14 10:36:46;;;;;;;13.95;9.15;;;16.20;99.90;;;;;;5057405;27;20217;-83
2021/10/14 10:39:55;;;;;;;12.27;9.60;;;16.30;99.90;;;;;;5116592;27;20217;-83
2021/10/14 10:42:26;;;;;;;11.25;9.30;;;16.20;99.90;;;;;;5074813;28;20305;-84
2021/10/14 10:44:53;;;;;;;10.63;7.95;;;16.40;99.90;;;;;;5116015;27;20260;-83
2021/10/14 10:47:48;;;;;;;14.15;8.13;;;16.40;99.90;;;;;;5126250;27;20208;-84
2021/10/14 10:50:53;;;;;;;10.50;8.30;;;16.30;99.90;;;;;;5121114;27;20313;-83
2021/10/14 10:53:22;;;;;;;9.20;7.70;;;16.10;99.90;;;;;;5137734;27;20203;-84
2021/10/14 10:55:57;;;;;;;10.02;8.10;;;16.20;99.90;;;;;;5139759;27;20220;-84
2021/10/14 10:58:49;;;;;;;14.73;7.97;;;16.40;99.90;;;;;;5140084;27;20594;-84
2021/10/14 11:01:17;;;;;;;9.07;8.13;;;16.50;99.90;;;;;;5128001;27;20214;-84
2021/10/14 11:04:04;;;;;;;13.80;8.20;;;16.40;99.90;;;;;;5130338;27;21174;-84
2021/10/14 11:06:38;;;;;;;11.25;9.13;;;16.40;99.90;;;;;;5134348;27;20441;-84
2021/10/14 11:09:11;;;;;;;10.80;8.77;;;16.30;99.90;;;;;;5134138;27;20220;-84
2021/10/14 11:11:38;;;;;;;13.60;9.35;;;16.30;99.90;;;;;;5130121;27;20216;-84
2021/10/14 11:14:10;;;;;;;10.35;7.95;;;16.40;99.90;;;;;;5132443;27;20197;-84
2021/10/14 11:16:37;;;;;;;10.70;7.95;;;16.40;99.90;;;;;;5127185;27;20214;-84
2021/10/14 11:19:07;;;;;;;7.95;7.05;;;16.40;99.90;;;;;;5137378;27;20242;-83
2021/10/14 11:21:46;;;;;;;14.88;8.48;;;16.60;99.90;;;;;;5140682;27;20214;-84
2021/10/14 11:24:15;;;;;;;8.65;7.75;;;16.60;99.90;;;;;;5112423;27;20267;-83
2021/10/14 11:26:43;;;;;;;12.05;8.68;;;16.60;99.90;;;;;;5138359;27;20264;-83
2021/10/14 11:29:23;;;;;;;9.00;8.05;;;16.40;99.90;;;;;;5124364;27;20232;-84
2021/10/14 11:31:55;;;;;;;9.57;8.45;;;16.30;99.90;;;;;;5114947;27;20212;-84
2021/10/14 11:34:26;;;;;;;10.25;7.43;;;16.20;99.90;;;;;;5131275;27;20256;-84
2021/10/14 11:37:00;;;;;;;9.00;7.20;;;16.10;99.90;;;;;;5132852;27;20202;-84
2021/10/14 11:39:33;;;;;;;12.00;8.90;;;16.30;99.90;;;;;;5126133;27;20228;-84
2021/10/14 11:42:02;;;;;;;7.38;6.68;;;16.40;99.90;;;;;;5129081;27;20203;-84
2021/10/14 11:44:31;;;;;;;10.43;8.57;;;16.50;99.90;;;;;;5128313;27;20223;-84
2021/10/14 11:46:59;;;;;;;10.20;8.50;;;16.50;99.90;;;;;;5133398;27;20314;-84
2021/10/14 11:49:27;;;;;;;9.70;7.45;;;16.50;99.90;;;;;;5129504;27;20232;-84
2021/10/14 11:51:55;;;;;;;12.23;8.20;;;16.40;99.90;;;;;;5127716;27;20686;-84
2021/10/14 11:54:23;;;;;;;13.73;9.05;;;16.30;99.90;;;;;;5134999;27;20203;-84
2021/10/14 11:56:52;;;;;;;10.75;8.07;;;16.30;99.90;;;;;;5134805;27;20195;-84
2021/10/14 11:59:21;;;;;;;12.82;7.97;;;16.40;99.90;;;;;;5142199;27;20204;-83
2021/10/14 12:01:52;;;;;;;10.68;8.23;;;16.30;99.90;;;;;;5131816;28;20194;-83
2021/10/14 12:04:21;;;;;;;9.63;7.65;;;16.10;99.90;;;;;;5145883;27;20224;-83
2021/10/14 12:06:51;;;;;;;12.05;9.43;;;16.20;99.90;;;;;;5142329;27;20219;-83
2021/10/14 12:09:20;;;;;;;10.60;7.07;;;16.20;99.90;;;;;;5138872;28;20203;-83
2021/10/14 12:11:49;;;;;;;7.90;7.10;;;16.20;99.90;;;;;;5138357;28;20186;-83
2021/10/14 12:17:39;;;;;;;9.80;6.22;;;16.00;99.90;;;;;;5076044;28;20200;-84
2021/10/14 12:20:12;;;;;;;8.45;6.40;;;15.90;99.90;;;;;;5134283;28;20228;-83
2021/10/14 12:22:41;;;;;;;6.88;4.90;;;15.80;99.90;;;;;;5141718;27;20272;-84
2021/10/14 12:25:10;;;;;;;8.32;5.82;;;15.80;99.90;;;;;;5125971;28;20246;-84
2021/10/14 12:27:45;;;;;;;9.50;5.40;;;15.90;99.90;;;;;;5126099;28;20262;-84
2021/10/14 12:30:20;;;;;;;6.45;5.60;;;16.00;99.90;;;;;;5134778;27;20230;-84
2021/10/14 12:32:51;;;;;;;7.30;5.53;;;16.00;99.90;;;;;;5126525;27;20215;-84
2021/10/14 12:35:24;;;;;;;8.00;5.65;;;16.00;99.90;;;;;;5125598;27;20290;-84
2021/10/14 12:38:07;;;;;;;8.40;5.45;;;16.10;99.90;;;;;;5129804;27;20190;-84
2021/10/14 12:40:43;;;;;;;9.70;5.82;;;16.30;99.90;;;;;;5127077;27;20198;-84
2021/10/14 12:44:10;;;;;;;9.38;5.60;;;16.50;99.90;;;;;;5109849;28;20204;-84
2021/10/14 12:46:45;;;;;;;7.35;5.47;;;16.50;99.90;;;;;;5118373;28;20242;-84
2021/10/14 12:50:01;;;;;;;9.45;5.68;;;16.60;99.90;;;;;;5124145;27;20223;-83
2021/10/14 12:52:32;;;;;;;9.40;4.85;;;16.70;99.90;;;;;;5118966;27;20292;-84
2021/10/14 12:58:39;;;;;;;7.32;5.35;;;16.90;99.90;;;;;;5129641;27;20402;-84
2021/10/14 13:01:10;;;;;;;7.80;5.22;;;16.80;99.90;;;;;;5123751;27;20215;-84
2021/10/14 13:03:43;;;;;;;8.80;6.33;;;16.60;99.90;;;;;;5114643;27;20204;-83
2021/10/14 13:06:43;;;;;;;9.30;6.03;;;16.50;99.90;;;;;;5114434;27;20521;-84
2021/10/14 13:09:36;;;;;;;7.55;5.38;;;16.40;99.90;;;;;;5130204;27;20234;-84
2021/10/14 13:12:03;;;;;;;7.55;5.60;;;16.30;99.90;;;;;;5115152;27;20207;-84
2021/10/14 13:14:37;;;;;;;8.63;5.65;;;16.40;99.90;;;;;;5123819;28;20233;-84
2021/10/14 13:17:04;;;;;;;8.55;5.97;;;16.50;99.90;;;;;;5132894;27;20197;-84
2021/10/14 13:19:31;;;;;;;12.73;5.88;;;16.60;99.90;;;;;;5128097;27;20223;-85
2021/10/14 13:21:58;;;;;;;10.73;5.80;;;16.70;99.90;;;;;;5134725;28;20200;-83
2021/10/14 13:24:26;;;;;;;7.90;6.07;;;16.70;99.90;;;;;;5136516;28;20244;-84
2021/10/14 13:26:54;;;;;;;8.45;5.82;;;16.80;99.90;;;;;;5137382;28;20183;-84
2021/10/14 13:29:21;;;;;;;8.90;6.00;;;16.80;99.90;;;;;;5138097;28;20322;-84
2021/10/14 13:31:50;;;;;;;7.65;4.80;;;16.90;99.90;;;;;;5136028;28;20443;-84
2021/10/14 13:34:17;;;;;;;9.83;5.10;;;16.90;99.90;;;;;;5138194;28;20219;-84
2021/10/14 13:36:45;;;;;;;6.03;5.10;;;16.80;99.90;;;;;;5137267;28;20447;-84
2021/10/14 13:39:18;;;;;;;9.50;5.95;;;16.70;99.90;;;;;;5141635;27;20232;-84
2021/10/14 13:41:46;;;;;;;8.30;5.00;;;16.70;99.90;;;;;;5141134;27;20188;-82